createdAt,value
2018-12-11T00:00:17.650Z,6.40
2018-12-11T00:02:57.371Z,6.10
2018-12-11T00:05:31.955Z,6.50
2018-12-11T00:08:04.395Z,5.53
2018-12-11T00:10:36.298Z,3.50
2018-12-11T00:33:20.203Z,2.60
2018-12-11T00:35:56.360Z,1.87
2018-12-11T00:38:29.510Z,2.13
2018-12-11T00:41:02.181Z,1.83
2018-12-11T00:43:32.196Z,1.83
2018-12-11T00:46:05.403Z,1.70
2018-12-11T00:48:38.959Z,1.80
2018-12-11T00:51:11.279Z,1.50
2018-12-11T00:53:44.981Z,1.63
2018-12-11T00:56:17.341Z,1.50
2018-12-11T00:58:49.605Z,1.20
2018-12-11T01:01:21.858Z,1.60
2018-12-11T01:03:54.536Z,1.17
2018-12-11T01:06:31.464Z,1.30
2018-12-11T01:09:07.941Z,2.30
2018-12-11T01:11:40.715Z,3.33
2018-12-11T01:14:12.947Z,4.50
2018-12-11T01:16:45.213Z,6.73
2018-12-11T01:19:21.546Z,4.70
2018-12-11T01:21:57.890Z,6.03
2018-12-11T01:24:34.097Z,4.90
2018-12-11T01:27:06.494Z,4.10
2018-12-11T01:29:39.421Z,5.07
2018-12-11T01:32:11.423Z,4.87
2018-12-11T01:37:15.736Z,4.63
2018-12-11T01:39:48.136Z,4.17
2018-12-11T01:42:20.371Z,4.90
2018-12-11T01:44:56.685Z,4.97
2018-12-11T01:47:32.738Z,4.93
2018-12-11T01:50:09.126Z,6.47
2018-12-11T01:52:41.478Z,5.73
2018-12-11T01:55:17.642Z,5.07
2018-12-11T01:57:50.674Z,5.00
2018-12-11T02:00:24.000Z,4.43
2018-12-11T02:03:00.213Z,3.53
2018-12-11T02:05:36.305Z,3.50
2018-12-11T02:08:12.576Z,3.57
2018-12-11T02:10:48.878Z,3.63
2018-12-11T02:13:19.167Z,3.17
2018-12-11T02:15:51.397Z,2.90
2018-12-11T02:18:23.735Z,2.80
2018-12-11T02:20:53.484Z,3.13
2018-12-11T02:23:26.385Z,3.30
2018-12-11T02:25:59.212Z,5.23
2018-12-11T02:28:35.543Z,9.57
2018-12-11T02:31:11.704Z,5.50
2018-12-11T02:33:44.280Z,8.17
2018-12-11T02:41:13.121Z,7.27
2018-12-11T02:43:45.205Z,8.77
2018-12-11T02:46:15.105Z,8.10
2018-12-11T02:48:47.876Z,11.10
2018-12-11T02:51:24.322Z,10.13
2018-12-11T02:54:00.439Z,8.67
2018-12-11T02:56:32.408Z,10.80
2018-12-11T02:59:04.582Z,8.73
2018-12-11T03:01:37.208Z,10.53
2018-12-11T03:04:06.753Z,12.50
2018-12-11T03:06:39.682Z,7.77
2018-12-11T03:09:12.667Z,8.80
2018-12-11T03:11:49.196Z,8.70
2018-12-11T03:14:21.322Z,8.00
2018-12-11T03:16:52.129Z,9.37
2018-12-11T03:19:24.677Z,8.40
2018-12-11T03:21:57.081Z,11.07
2018-12-11T03:24:29.109Z,7.33
2018-12-11T03:27:02.027Z,10.33
2018-12-11T03:29:34.050Z,6.60
2018-12-11T03:32:10.951Z,6.83
2018-12-11T03:34:44.181Z,5.10
2018-12-11T03:37:16.752Z,5.03
2018-12-11T03:39:51.321Z,3.20
2018-12-11T03:42:27.580Z,2.80
2018-12-11T03:45:01.088Z,3.87
2018-12-11T03:47:38.042Z,3.33
2018-12-11T03:50:11.972Z,2.43
2018-12-11T03:52:45.538Z,5.00
2018-12-11T03:55:25.577Z,2.03
2018-12-11T03:57:58.555Z,2.20
2018-12-11T04:00:35.748Z,2.00
2018-12-11T04:03:09.197Z,2.00
2018-12-11T04:05:46.515Z,2.60
2018-12-11T04:08:23.335Z,4.70
2018-12-11T04:10:56.637Z,6.93
2018-12-11T04:13:33.310Z,9.23
2018-12-11T04:16:06.675Z,8.80
2018-12-11T04:18:39.682Z,9.73
2018-12-11T04:21:12.916Z,8.53
2018-12-11T04:23:46.157Z,11.87
2018-12-11T04:26:18.984Z,7.90
2018-12-11T04:28:49.442Z,9.00
2018-12-11T04:31:26.183Z,8.90
2018-12-11T04:33:57.803Z,8.03
2018-12-11T04:36:31.709Z,8.90
2018-12-11T04:39:01.954Z,8.57
2018-12-11T04:41:34.097Z,9.07
2018-12-11T04:44:05.126Z,8.30
2018-12-11T04:46:34.998Z,8.13
2018-12-11T04:49:12.155Z,8.70
2018-12-11T04:51:44.407Z,10.17
2018-12-11T04:54:20.691Z,9.00
2018-12-11T04:56:59.304Z,8.20
2018-12-11T04:59:48.135Z,8.90
2018-12-11T05:02:21.040Z,9.20
2018-12-11T05:04:53.110Z,8.33
2018-12-11T05:07:25.303Z,10.53
2018-12-11T05:09:58.115Z,9.50
2018-12-11T05:12:30.624Z,8.67
2018-12-11T05:15:02.518Z,9.10
2018-12-11T05:17:34.502Z,10.73
2018-12-11T05:20:10.750Z,8.57
2018-12-11T05:22:46.945Z,7.93
2018-12-11T05:25:19.056Z,8.03
2018-12-11T05:27:50.970Z,7.33
2018-12-11T05:30:23.072Z,7.90
2018-12-11T05:32:55.070Z,7.77
2018-12-11T05:35:27.296Z,9.17
2018-12-11T05:38:03.443Z,8.37
2018-12-11T05:40:35.453Z,8.37
2018-12-11T05:43:11.560Z,10.97
2018-12-11T05:45:48.265Z,9.47
2018-12-11T05:48:24.588Z,12.80
2018-12-11T05:50:56.615Z,9.53
2018-12-11T05:53:28.810Z,8.47
2018-12-11T05:56:02.605Z,6.90
2018-12-11T05:58:38.850Z,8.67
2018-12-11T06:01:11.100Z,7.03
2018-12-11T06:03:43.126Z,5.50
2018-12-11T06:06:16.157Z,6.17
2018-12-11T06:08:48.515Z,6.43
2018-12-11T06:11:20.491Z,6.17
2018-12-11T06:13:56.564Z,5.27
2018-12-11T06:16:28.977Z,5.90
2018-12-11T06:19:01.078Z,4.97
2018-12-11T06:21:31.053Z,6.30
2018-12-11T06:24:01.560Z,6.57
2018-12-11T06:26:31.475Z,8.60
2018-12-11T06:29:01.703Z,7.80
2018-12-11T06:31:31.668Z,6.37
2018-12-11T06:34:03.942Z,7.03
2018-12-11T06:36:39.899Z,6.50
2018-12-11T06:39:15.832Z,4.50
2018-12-11T06:41:48.999Z,5.13
2018-12-11T06:44:20.967Z,5.60
2018-12-11T06:46:53.141Z,5.90
2018-12-11T06:49:25.104Z,4.20
2018-12-11T06:57:02.040Z,7.90
2018-12-11T06:59:34.187Z,6.97
2018-12-11T07:02:06.385Z,5.63
2018-12-11T07:04:36.116Z,6.23
2018-12-11T07:07:08.254Z,6.10
2018-12-11T07:09:38.452Z,7.80
2018-12-11T07:12:10.690Z,8.00
2018-12-11T07:14:42.778Z,9.13
2018-12-11T07:17:15.071Z,8.23
2018-12-11T07:19:46.876Z,6.67
2018-12-11T07:22:23.189Z,7.07
2018-12-11T07:24:59.188Z,6.80
2018-12-11T07:27:29.207Z,7.73
2018-12-11T07:30:01.263Z,8.17
2018-12-11T07:32:33.353Z,8.53
2018-12-11T07:35:05.285Z,10.27
2018-12-11T07:37:35.235Z,8.03
2018-12-11T07:40:07.327Z,10.00
2018-12-11T07:42:39.789Z,10.33
2018-12-11T07:45:12.144Z,9.63
2018-12-11T07:47:44.978Z,10.87
2018-12-11T07:50:21.170Z,8.30
2018-12-11T07:52:51.292Z,9.03
2018-12-11T07:55:24.254Z,7.50
2018-12-11T07:57:57.184Z,8.10
2018-12-11T08:00:33.243Z,8.37
2018-12-11T08:03:05.351Z,11.33
2018-12-11T08:05:37.720Z,9.53
2018-12-11T08:08:14.779Z,10.33
2018-12-11T08:10:47.928Z,12.10
2018-12-11T08:13:19.987Z,13.50
2018-12-11T08:15:56.030Z,9.13
2018-12-11T08:18:32.203Z,9.70
2018-12-11T08:21:08.441Z,10.23
2018-12-11T08:23:40.625Z,10.70
2018-12-11T08:26:12.939Z,14.57
2018-12-11T08:28:45.701Z,12.23
2018-12-11T08:31:22.204Z,12.67
2018-12-11T08:33:54.307Z,16.23
2018-12-11T08:36:30.278Z,12.13
2018-12-11T08:39:00.330Z,11.40
2018-12-11T08:41:32.247Z,11.03
2018-12-11T08:44:08.322Z,11.30
2018-12-11T08:46:40.822Z,9.77
2018-12-11T08:49:13.480Z,8.70
2018-12-11T08:51:46.234Z,11.60
2018-12-11T08:54:18.894Z,10.43
2018-12-11T08:56:51.567Z,12.13
2018-12-11T08:59:23.733Z,11.30
2018-12-11T09:01:56.352Z,11.20
2018-12-11T09:04:28.475Z,13.93
2018-12-11T09:07:00.671Z,19.80
2018-12-11T09:09:33.590Z,19.30
2018-12-11T09:12:05.876Z,17.47
2018-12-11T09:14:38.055Z,19.27
2018-12-11T09:17:10.616Z,13.50
2018-12-11T09:19:42.634Z,14.47
2018-12-11T09:22:14.873Z,17.30
2018-12-11T09:24:51.365Z,13.83
2018-12-11T09:27:23.831Z,10.80
2018-12-11T09:29:55.980Z,10.67
2018-12-11T09:32:28.989Z,10.40
2018-12-11T09:35:01.212Z,10.10
2018-12-11T09:37:33.711Z,10.30
2018-12-11T09:40:06.144Z,11.63
2018-12-11T09:42:39.070Z,9.37
2018-12-11T09:45:11.206Z,12.77
2018-12-11T09:47:43.726Z,9.20
2018-12-11T09:50:20.531Z,9.37
2018-12-11T09:52:51.592Z,10.87
2018-12-11T09:55:24.910Z,11.80
2018-12-11T10:00:31.779Z,17.87
2018-12-11T10:03:04.680Z,19.83
2018-12-11T10:05:37.312Z,17.63
2018-12-11T10:08:09.528Z,21.50
2018-12-11T10:10:42.493Z,16.43
2018-12-11T10:13:14.681Z,13.30
2018-12-11T10:15:51.001Z,16.07
2018-12-11T10:18:21.238Z,19.13
2018-12-11T10:20:57.351Z,17.73
2018-12-11T10:23:31.938Z,23.67
2018-12-11T10:26:09.050Z,18.63
2018-12-11T10:28:39.841Z,14.03
2018-12-11T10:31:12.781Z,13.00
2018-12-11T10:33:45.229Z,15.20
2018-12-11T10:36:18.060Z,13.47
2018-12-11T10:38:50.739Z,14.13
2018-12-11T10:41:22.779Z,16.00
2018-12-11T10:43:53.660Z,16.37
2018-12-11T10:46:33.749Z,18.37
2018-12-11T10:49:07.908Z,18.27
2018-12-11T10:51:44.007Z,16.00
2018-12-11T10:54:16.173Z,12.43
2018-12-11T10:56:48.362Z,20.23
2018-12-11T10:59:25.492Z,17.93
2018-12-11T11:02:04.211Z,20.17
2018-12-11T11:04:36.579Z,19.13
2018-12-11T11:07:13.687Z,19.33
2018-12-11T11:09:49.871Z,16.50
2018-12-11T11:12:22.367Z,14.73
2018-12-11T11:14:54.449Z,18.20
2018-12-11T11:17:25.691Z,13.13
2018-12-11T11:19:57.986Z,15.20
2018-12-11T11:22:30.455Z,16.83
2018-12-11T11:25:02.768Z,14.30
2018-12-11T11:27:35.759Z,20.40
2018-12-11T11:30:06.914Z,12.93
2018-12-11T11:32:39.356Z,16.50
2018-12-11T11:35:15.429Z,11.10
2018-12-11T11:37:47.462Z,12.87
2018-12-11T11:40:20.126Z,18.27
2018-12-11T11:42:52.409Z,12.07
2018-12-11T11:45:28.635Z,17.20
2018-12-11T11:48:02.445Z,16.80
2018-12-11T11:50:33.091Z,12.30
2018-12-11T11:53:05.935Z,13.17
2018-12-11T11:55:38.389Z,16.00
2018-12-11T11:58:10.595Z,9.70
2018-12-11T12:13:22.601Z,9.43
2018-12-11T12:15:52.998Z,7.20
2018-12-11T12:18:25.267Z,9.37
2018-12-11T12:20:56.396Z,7.43
2018-12-11T12:23:26.551Z,4.50
2018-12-11T12:25:58.671Z,4.97
2018-12-11T12:28:30.950Z,4.60
2018-12-11T12:31:04.425Z,3.97
2018-12-11T12:33:37.018Z,4.90
2018-12-11T12:36:10.101Z,4.07
2018-12-11T12:38:43.066Z,2.97
2018-12-11T12:41:13.891Z,4.07
2018-12-11T12:43:46.076Z,3.17
2018-12-11T12:46:18.554Z,3.00
2018-12-11T12:48:51.059Z,2.63
2018-12-11T12:51:23.421Z,2.07
2018-12-11T12:54:00.383Z,0.80
2018-12-11T12:56:36.543Z,1.57
2018-12-11T12:59:12.643Z,1.83
2018-12-11T13:01:45.571Z,1.20
2018-12-11T13:04:21.809Z,1.20
2018-12-11T13:06:57.895Z,1.07
2018-12-11T13:09:27.978Z,1.70
2018-12-11T13:11:58.074Z,0.97
2018-12-11T13:19:32.241Z,1.10
2018-12-11T13:22:06.208Z,2.93
2018-12-11T13:24:38.620Z,0.90
2018-12-11T13:27:16.459Z,1.13
2018-12-11T13:29:49.261Z,4.17
2018-12-11T13:32:25.289Z,2.83
2018-12-11T13:34:57.467Z,0.70
2018-12-11T13:37:27.739Z,0.80
2018-12-11T13:40:00.589Z,1.97
2018-12-11T13:42:32.643Z,2.40
2018-12-11T13:45:03.941Z,0.80
2018-12-11T13:47:36.599Z,1.03
2018-12-11T13:50:12.737Z,1.87
2018-12-11T13:52:45.178Z,1.60
2018-12-11T13:55:22.127Z,4.03
2018-12-11T13:57:54.376Z,2.57
2018-12-11T14:00:31.522Z,1.03
2018-12-11T14:03:01.712Z,4.37
2018-12-11T14:05:38.863Z,2.93
2018-12-11T14:08:11.839Z,7.67
2018-12-11T14:10:43.945Z,3.80
2018-12-11T14:13:20.894Z,1.43
2018-12-11T14:15:53.183Z,3.53
2018-12-11T14:18:23.551Z,3.97
2018-12-11T14:20:59.786Z,4.13
2018-12-11T14:23:31.913Z,1.60
2018-12-11T14:26:04.837Z,2.80
2018-12-11T14:28:37.205Z,2.87
2018-12-11T14:31:08.248Z,1.20
2018-12-11T14:33:41.371Z,3.17
2018-12-11T14:36:15.282Z,3.67
2018-12-11T14:38:52.782Z,2.40
2018-12-11T14:41:26.050Z,1.70
2018-12-11T14:43:58.880Z,1.87
2018-12-11T14:46:31.022Z,1.70
2018-12-11T14:49:07.347Z,3.30
2018-12-11T14:51:44.339Z,8.63
2018-12-11T14:54:17.365Z,3.00
2018-12-11T14:56:49.847Z,4.27
2018-12-11T14:59:22.059Z,7.20
2018-12-11T15:01:54.322Z,8.30
2018-12-11T15:04:27.353Z,5.90
2018-12-11T15:07:03.639Z,4.90
2018-12-11T15:09:45.876Z,6.90
2018-12-11T15:12:18.770Z,6.67
2018-12-11T15:14:50.935Z,8.60
2018-12-11T15:17:20.927Z,6.17
2018-12-11T15:22:19.920Z,6.90
2018-12-11T15:24:52.317Z,8.37
2018-12-11T15:27:28.391Z,8.77
2018-12-11T15:30:01.605Z,8.73
2018-12-11T15:32:35.016Z,3.07
2018-12-11T15:35:07.388Z,4.10
2018-12-11T15:37:39.596Z,4.93
2018-12-11T15:40:12.406Z,4.70
2018-12-11T15:42:42.610Z,5.07
2018-12-11T15:45:15.986Z,4.87
2018-12-11T15:47:49.073Z,1.77
2018-12-11T15:50:21.396Z,5.27
2018-12-11T15:53:00.474Z,2.23
2018-12-11T15:55:38.074Z,2.47
2018-12-11T15:58:15.198Z,2.23
2018-12-11T16:00:56.160Z,2.80
2018-12-11T16:03:31.785Z,1.40
2018-12-11T16:06:05.534Z,4.47
2018-12-11T16:08:38.744Z,3.10
2018-12-11T16:11:11.772Z,7.13
2018-12-11T16:13:46.207Z,10.47
2018-12-11T16:16:18.760Z,3.57
2018-12-11T16:18:56.505Z,4.00
2018-12-11T16:21:28.612Z,2.80
2018-12-11T16:29:06.534Z,2.20
2018-12-11T16:31:43.935Z,1.77
2018-12-11T16:34:16.850Z,4.67
2018-12-11T16:36:49.369Z,1.40
2018-12-11T16:39:22.658Z,1.93
2018-12-11T16:41:57.628Z,2.47
2018-12-11T16:44:31.028Z,2.37
2018-12-11T16:47:03.689Z,2.73
2018-12-11T16:49:38.231Z,1.57
2018-12-11T16:52:09.654Z,1.60
2018-12-11T16:54:42.803Z,1.30
2018-12-11T16:57:17.839Z,1.47
2018-12-11T16:59:48.354Z,4.43
2018-12-11T17:02:20.687Z,2.60
2018-12-11T17:04:51.609Z,2.57
2018-12-11T17:07:24.370Z,1.43
2018-12-11T17:10:02.445Z,1.40
2018-12-11T17:12:37.393Z,3.90
2018-12-11T17:15:15.716Z,4.10
2018-12-11T17:17:50.168Z,12.77
2018-12-11T17:20:23.957Z,8.10
2018-12-11T17:22:54.757Z,5.60
2018-12-11T17:25:24.807Z,6.53
2018-12-11T17:27:56.844Z,8.13
2018-12-11T17:38:03.497Z,6.13
2018-12-11T17:40:36.527Z,6.27
2018-12-11T17:43:10.709Z,7.93
2018-12-11T17:45:46.127Z,7.37
2018-12-11T17:48:20.784Z,10.90
2018-12-11T17:50:55.284Z,15.87
2018-12-11T17:53:28.550Z,10.93
2018-12-11T17:56:00.924Z,12.07
2018-12-11T17:58:39.436Z,13.10
2018-12-11T18:01:19.793Z,15.07
2018-12-11T18:03:57.802Z,13.23
2018-12-11T18:06:31.390Z,12.07
2018-12-11T18:09:05.298Z,7.77
2018-12-11T18:11:42.915Z,11.20
2018-12-11T18:14:20.605Z,13.63
2018-12-11T18:16:55.333Z,22.47
2018-12-11T18:19:31.030Z,22.90
2018-12-11T18:22:04.022Z,19.80
2018-12-11T18:24:38.946Z,16.53
2018-12-11T18:27:12.002Z,13.37
2018-12-11T18:29:44.102Z,13.50
2018-12-11T18:32:17.212Z,9.70
2018-12-11T18:34:51.435Z,8.17
2018-12-11T18:37:23.845Z,9.53
2018-12-11T18:55:03.344Z,10.73
2018-12-11T18:57:36.745Z,12.37
2018-12-11T19:00:09.769Z,9.60
2018-12-11T19:02:42.855Z,9.97
2018-12-11T19:05:15.657Z,13.07
2018-12-11T19:07:48.772Z,10.33
2018-12-11T19:10:23.573Z,11.27
2018-12-11T19:12:55.689Z,10.57
2018-12-11T19:15:29.655Z,10.17
2018-12-11T19:18:02.797Z,9.60
2018-12-11T19:20:35.768Z,11.37
2018-12-11T19:23:23.735Z,11.27
2018-12-11T19:26:02.955Z,10.23
2018-12-11T19:28:35.115Z,9.90
2018-12-11T19:31:08.461Z,8.70
2018-12-11T19:33:41.068Z,6.07
2018-12-11T19:36:15.186Z,7.97
2018-12-11T19:38:50.944Z,6.53
2018-12-11T19:41:23.987Z,5.80
2018-12-11T19:43:57.236Z,5.63
2018-12-11T19:46:29.564Z,4.97
2018-12-11T19:48:59.745Z,5.93
2018-12-11T19:51:30.925Z,3.93
2018-12-11T20:04:06.961Z,2.90
2018-12-11T20:06:39.932Z,3.73
2018-12-11T20:09:16.904Z,2.03
2018-12-11T20:11:49.840Z,1.60
2018-12-11T20:14:23.882Z,1.70
2018-12-11T20:16:57.150Z,2.00
2018-12-11T20:19:34.201Z,3.77
2018-12-11T20:22:11.135Z,3.97
2018-12-11T20:24:44.249Z,6.77
2018-12-11T20:27:21.299Z,7.47
2018-12-11T20:29:53.748Z,9.27
2018-12-11T20:32:24.855Z,9.97
2018-12-11T20:35:02.749Z,9.17
2018-12-11T20:37:35.948Z,8.93
2018-12-11T20:40:09.004Z,7.20
2018-12-11T20:42:40.046Z,7.30
2018-12-11T20:45:11.232Z,10.83
2018-12-11T20:47:43.513Z,8.93
2018-12-11T20:50:15.839Z,9.00
2018-12-11T20:52:53.104Z,6.67
2018-12-11T20:55:29.259Z,5.47
2018-12-11T20:58:02.391Z,6.83
2018-12-11T21:00:36.910Z,6.30
2018-12-11T21:03:09.771Z,7.53
2018-12-11T21:08:22.357Z,4.13
2018-12-11T21:10:59.434Z,4.53
2018-12-11T21:13:32.643Z,5.27
2018-12-11T21:16:10.962Z,5.60
2018-12-11T21:18:39.982Z,5.37
2018-12-11T21:21:16.545Z,5.03
2018-12-11T21:23:49.084Z,4.97
2018-12-11T21:26:22.125Z,4.83
2018-12-11T21:28:55.379Z,4.87
2018-12-11T21:31:28.468Z,4.17
2018-12-11T21:34:05.518Z,4.10
2018-12-11T21:36:38.692Z,6.20
2018-12-11T21:39:11.920Z,6.13
2018-12-11T21:41:48.169Z,9.17
2018-12-11T21:44:22.688Z,6.97
2018-12-11T21:46:59.619Z,7.10
2018-12-11T21:49:33.011Z,15.53
2018-12-11T21:52:06.178Z,7.73
2018-12-11T21:54:39.724Z,8.20
2018-12-11T21:57:17.745Z,5.77
2018-12-11T21:59:54.455Z,5.40
2018-12-11T22:02:32.009Z,4.93
2018-12-11T22:05:09.156Z,3.73
2018-12-11T22:07:46.807Z,3.23
2018-12-11T22:10:19.942Z,3.47
2018-12-11T22:12:53.426Z,3.47
2018-12-11T22:15:30.277Z,3.23
2018-12-11T22:18:02.686Z,3.13
2018-12-11T22:20:38.792Z,3.80
2018-12-11T22:23:15.985Z,8.87
2018-12-11T22:25:52.057Z,9.17
2018-12-11T22:28:24.206Z,13.13
2018-12-11T22:31:00.350Z,12.10
2018-12-11T22:33:32.931Z,8.73
2018-12-11T22:36:09.971Z,9.57
2018-12-11T22:38:46.139Z,10.50
2018-12-11T22:41:22.380Z,6.07
2018-12-11T22:43:55.331Z,5.83
2018-12-11T22:46:27.642Z,5.43
2018-12-11T22:48:57.782Z,6.40
2018-12-11T22:51:30.103Z,4.10
2018-12-11T22:54:03.267Z,4.97
2018-12-11T22:56:36.011Z,5.83
2018-12-11T22:59:12.253Z,4.23
2018-12-11T23:01:44.724Z,7.17
2018-12-11T23:04:20.757Z,10.17
2018-12-11T23:06:56.789Z,5.80
2018-12-11T23:19:31.532Z,2.87
2018-12-11T23:22:03.701Z,2.83
2018-12-11T23:24:35.939Z,3.53
2018-12-11T23:27:07.962Z,3.07
2018-12-11T23:29:40.097Z,3.30
2018-12-11T23:32:12.414Z,2.40
2018-12-11T23:34:43.421Z,2.37
2018-12-11T23:37:19.620Z,3.83
2018-12-11T23:39:55.890Z,1.90
2018-12-11T23:42:32.136Z,2.30
2018-12-11T23:45:08.769Z,2.30
2018-12-11T23:47:41.332Z,4.03
2018-12-11T23:50:13.436Z,3.97
2018-12-11T23:52:45.655Z,4.73
2018-12-11T23:55:21.856Z,2.33
2018-12-11T23:57:54.113Z,2.40
